sensor_id;sensor_type;location;lat;lon;timestamp;pressure;altitude;pressure_sealevel;temperature;humidity
31681;BME280;18281;51.364;9.566;2023-03-19T00:00:48;99660.59;;;7.35;100.00
31681;BME280;18281;51.364;9.566;2023-03-19T00:03:16;99656.59;;;7.28;100.00
31681;BME280;18281;51.364;9.566;2023-03-19T00:05:49;99665.25;;;7.47;100.00
31681;BME280;18281;51.364;9.566;2023-03-19T00:08:20;99658.63;;;7.57;100.00
31681;BME280;18281;51.364;9.566;2023-03-19T00:10:47;99662.53;;;7.31;100.00
31681;BME280;18281;51.364;9.566;2023-03-19T00:13:15;99669.00;;;7.22;100.00
31681;BME280;18281;51.364;9.566;2023-03-19T00:15:47;99666.81;;;6.94;100.00
31681;BME280;18281;51.364;9.566;2023-03-19T00:18:21;99670.44;;;7.11;100.00
31681;BME280;18281;51.364;9.566;2023-03-19T00:20:47;99666.03;;;7.30;100.00
31681;BME280;18281;51.364;9.566;2023-03-19T00:23:15;99663.06;;;7.38;100.00
31681;BME280;18281;51.364;9.566;2023-03-19T00:25:43;99664.75;;;7.39;100.00
31681;BME280;18281;51.364;9.566;2023-03-19T00:28:09;99668.56;;;7.32;100.00
31681;BME280;18281;51.364;9.566;2023-03-19T00:30:36;99665.53;;;7.41;100.00
31681;BME280;18281;51.364;9.566;2023-03-19T00:33:02;99668.84;;;7.45;100.00
31681;BME280;18281;51.364;9.566;2023-03-19T00:35:28;99668.78;;;7.46;100.00
31681;BME280;18281;51.364;9.566;2023-03-19T00:38:02;99667.88;;;7.47;100.00
31681;BME280;18281;51.364;9.566;2023-03-19T00:40:55;99666.53;;;7.38;100.00
31681;BME280;18281;51.364;9.566;2023-03-19T00:43:20;99669.53;;;7.12;100.00
31681;BME280;18281;51.364;9.566;2023-03-19T00:45:51;99678.97;;;6.95;100.00
31681;BME280;18281;51.364;9.566;2023-03-19T00:48:23;99676.50;;;7.11;100.00
31681;BME280;18281;51.364;9.566;2023-03-19T00:50:50;99678.47;;;7.25;100.00
31681;BME280;18281;51.364;9.566;2023-03-19T00:53:21;99677.47;;;7.28;100.00
31681;BME280;18281;51.364;9.566;2023-03-19T00:55:55;99688.41;;;7.36;100.00
31681;BME280;18281;51.364;9.566;2023-03-19T00:58:21;99684.59;;;7.24;100.00
31681;BME280;18281;51.364;9.566;2023-03-19T01:00:54;99684.13;;;7.16;100.00
31681;BME280;18281;51.364;9.566;2023-03-19T01:03:20;99683.75;;;7.23;100.00
31681;BME280;18281;51.364;9.566;2023-03-19T01:05:49;99694.13;;;7.25;100.00
31681;BME280;18281;51.364;9.566;2023-03-19T01:08:16;99683.75;;;7.23;100.00
31681;BME280;18281;51.364;9.566;2023-03-19T01:10:43;99691.03;;;7.17;100.00
31681;BME280;18281;51.364;9.566;2023-03-19T01:13:10;99695.28;;;7.19;100.00
31681;BME280;18281;51.364;9.566;2023-03-19T01:15:38;99697.88;;;7.19;100.00
31681;BME280;18281;51.364;9.566;2023-03-19T01:18:04;99695.28;;;7.19;100.00
31681;BME280;18281;51.364;9.566;2023-03-19T01:20:30;99699.94;;;7.13;100.00
31681;BME280;18281;51.364;9.566;2023-03-19T01:22:56;99691.53;;;7.06;100.00
31681;BME280;18281;51.364;9.566;2023-03-19T01:25:22;99702.53;;;7.13;100.00
31681;BME280;18281;51.364;9.566;2023-03-19T01:27:52;99687.44;;;7.19;100.00
31681;BME280;18281;51.364;9.566;2023-03-19T01:30:18;99698.50;;;7.05;100.00
31681;BME280;18281;51.364;9.566;2023-03-19T01:32:53;99704.75;;;7.03;100.00
31681;BME280;18281;51.364;9.566;2023-03-19T01:35:20;99704.16;;;6.96;100.00
31681;BME280;18281;51.364;9.566;2023-03-19T01:37:48;99704.34;;;6.91;100.00
31681;BME280;18281;51.364;9.566;2023-03-19T01:40:14;99708.91;;;7.07;100.00
31681;BME280;18281;51.364;9.566;2023-03-19T01:42:51;99705.72;;;6.80;100.00
31681;BME280;18281;51.364;9.566;2023-03-19T01:45:35;99710.88;;;6.81;100.00
31681;BME280;18281;51.364;9.566;2023-03-19T01:48:02;99695.75;;;6.89;100.00
31681;BME280;18281;51.364;9.566;2023-03-19T01:50:44;99693.50;;;7.01;100.00
31681;BME280;18281;51.364;9.566;2023-03-19T01:53:15;99698.75;;;6.80;100.00
31681;BME280;18281;51.364;9.566;2023-03-19T01:55:44;99698.13;;;6.75;100.00
31681;BME280;18281;51.364;9.566;2023-03-19T01:58:12;99690.53;;;6.89;100.00
31681;BME280;18281;51.364;9.566;2023-03-19T02:00:40;99685.75;;;6.99;100.00
31681;BME280;18281;51.364;9.566;2023-03-19T02:03:06;99681.72;;;6.52;100.00
31681;BME280;18281;51.364;9.566;2023-03-19T02:05:35;99687.28;;;6.64;100.00
31681;BME280;18281;51.364;9.566;2023-03-19T02:08:04;99689.38;;;6.76;100.00
31681;BME280;18281;51.364;9.566;2023-03-19T02:10:32;99687.84;;;6.51;100.00
31681;BME280;18281;51.364;9.566;2023-03-19T02:13:08;99686.25;;;6.68;100.00
31681;BME280;18281;51.364;9.566;2023-03-19T02:15:33;99685.19;;;6.72;100.00
31681;BME280;18281;51.364;9.566;2023-03-19T02:18:03;99675.97;;;6.65;100.00
31681;BME280;18281;51.364;9.566;2023-03-19T02:26:03;99671.63;;;6.45;100.00
31681;BME280;18281;51.364;9.566;2023-03-19T02:28:41;99667.63;;;6.56;100.00
31681;BME280;18281;51.364;9.566;2023-03-19T02:31:12;99669.03;;;6.64;100.00
31681;BME280;18281;51.364;9.566;2023-03-19T02:33:38;99668.69;;;6.71;100.00
31681;BME280;18281;51.364;9.566;2023-03-19T02:36:05;99674.94;;;6.48;100.00
31681;BME280;18281;51.364;9.566;2023-03-19T02:38:45;99674.16;;;6.67;100.00
31681;BME280;18281;51.364;9.566;2023-03-19T02:41:12;99691.44;;;6.49;100.00
31681;BME280;18281;51.364;9.566;2023-03-19T02:43:39;99692.34;;;6.48;100.00
31681;BME280;18281;51.364;9.566;2023-03-19T02:46:12;99682.66;;;6.31;100.00
31681;BME280;18281;51.364;9.566;2023-03-19T02:48:37;99689.03;;;6.23;100.00
31681;BME280;18281;51.364;9.566;2023-03-19T02:51:04;99682.72;;;6.50;100.00
31681;BME280;18281;51.364;9.566;2023-03-19T02:53:31;99679.88;;;6.54;100.00
31681;BME280;18281;51.364;9.566;2023-03-19T02:56:00;99682.88;;;6.66;100.00
31681;BME280;18281;51.364;9.566;2023-03-19T02:58:26;99691.59;;;6.65;100.00
31681;BME280;18281;51.364;9.566;2023-03-19T03:00:55;99689.63;;;6.51;100.00
31681;BME280;18281;51.364;9.566;2023-03-19T03:03:20;99687.88;;;6.31;100.00
31681;BME280;18281;51.364;9.566;2023-03-19T03:05:46;99690.06;;;6.19;100.00
31681;BME280;18281;51.364;9.566;2023-03-19T03:08:13;99688.38;;;6.18;100.00
31681;BME280;18281;51.364;9.566;2023-03-19T03:10:38;99692.69;;;6.19;100.00
31681;BME280;18281;51.364;9.566;2023-03-19T03:13:05;99691.13;;;6.36;100.00
31681;BME280;18281;51.364;9.566;2023-03-19T03:15:31;99682.13;;;6.43;100.00
31681;BME280;18281;51.364;9.566;2023-03-19T03:17:59;99679.31;;;6.48;100.00
31681;BME280;18281;51.364;9.566;2023-03-19T03:20:27;99680.94;;;6.50;100.00
31681;BME280;18281;51.364;9.566;2023-03-19T03:22:54;99684.34;;;6.52;100.00
31681;BME280;18281;51.364;9.566;2023-03-19T03:25:20;99671.88;;;6.59;100.00
31681;BME280;18281;51.364;9.566;2023-03-19T03:27:46;99680.03;;;6.51;100.00
31681;BME280;18281;51.364;9.566;2023-03-19T03:30:12;99689.25;;;6.19;100.00
31681;BME280;18281;51.364;9.566;2023-03-19T03:32:45;99694.53;;;6.17;100.00
31681;BME280;18281;51.364;9.566;2023-03-19T03:35:19;99697.34;;;6.33;100.00
31681;BME280;18281;51.364;9.566;2023-03-19T03:37:50;99700.66;;;6.16;100.00
31681;BME280;18281;51.364;9.566;2023-03-19T03:40:18;99702.06;;;6.23;100.00
31681;BME280;18281;51.364;9.566;2023-03-19T03:42:47;99703.38;;;6.34;100.00
31681;BME280;18281;51.364;9.566;2023-03-19T03:45:22;99697.91;;;6.40;100.00
31681;BME280;18281;51.364;9.566;2023-03-19T03:47:47;99698.16;;;6.34;100.00
31681;BME280;18281;51.364;9.566;2023-03-19T03:50:21;99699.72;;;6.38;100.00
31681;BME280;18281;51.364;9.566;2023-03-19T03:52:49;99705.94;;;6.15;100.00
31681;BME280;18281;51.364;9.566;2023-03-19T03:55:18;99701.41;;;6.18;100.00
31681;BME280;18281;51.364;9.566;2023-03-19T03:57:46;99704.16;;;5.95;100.00
31681;BME280;18281;51.364;9.566;2023-03-19T04:00:13;99723.44;;;6.11;100.00
31681;BME280;18281;51.364;9.566;2023-03-19T04:02:39;99726.84;;;6.13;100.00
31681;BME280;18281;51.364;9.566;2023-03-19T04:05:06;99717.25;;;5.93;100.00
31681;BME280;18281;51.364;9.566;2023-03-19T04:07:36;99723.38;;;6.13;100.00
31681;BME280;18281;51.364;9.566;2023-03-19T04:10:21;99725.47;;;6.25;100.00
31681;BME280;18281;51.364;9.566;2023-03-19T04:12:46;99720.25;;;6.25;100.00
31681;BME280;18281;51.364;9.566;2023-03-19T04:15:16;99734.63;;;5.93;100.00
31681;BME280;18281;51.364;9.566;2023-03-19T04:17:45;99731.34;;;5.87;100.00
31681;BME280;18281;51.364;9.566;2023-03-19T04:20:11;99733.41;;;6.01;100.00
31681;BME280;18281;51.364;9.566;2023-03-19T04:22:40;99730.28;;;6.14;100.00
31681;BME280;18281;51.364;9.566;2023-03-19T04:25:07;99725.81;;;6.17;100.00
31681;BME280;18281;51.364;9.566;2023-03-19T04:27:34;99724.88;;;6.18;100.00
31681;BME280;18281;51.364;9.566;2023-03-19T04:30:02;99723.81;;;6.02;100.00
31681;BME280;18281;51.364;9.566;2023-03-19T04:32:32;99709.56;;;6.11;100.00
31681;BME280;18281;51.364;9.566;2023-03-19T04:34:59;99693.47;;;6.21;100.00
31681;BME280;18281;51.364;9.566;2023-03-19T04:37:29;99684.41;;;6.30;100.00
31681;BME280;18281;51.364;9.566;2023-03-19T04:39:56;99691.44;;;6.07;100.00
31681;BME280;18281;51.364;9.566;2023-03-19T04:42:32;99707.78;;;5.90;100.00
31681;BME280;18281;51.364;9.566;2023-03-19T04:44:59;99717.50;;;5.87;100.00
31681;BME280;18281;51.364;9.566;2023-03-19T04:47:38;99713.59;;;5.97;100.00
31681;BME280;18281;51.364;9.566;2023-03-19T04:50:10;99719.97;;;5.90;100.00
31681;BME280;18281;51.364;9.566;2023-03-19T04:52:46;99712.72;;;5.97;100.00
31681;BME280;18281;51.364;9.566;2023-03-19T04:55:14;99712.50;;;5.81;100.00
31681;BME280;18281;51.364;9.566;2023-03-19T04:57:43;99706.16;;;6.09;100.00
31681;BME280;18281;51.364;9.566;2023-03-19T05:00:14;99713.53;;;5.99;100.00
31681;BME280;18281;51.364;9.566;2023-03-19T05:02:42;99711.31;;;5.89;100.00
31681;BME280;18281;51.364;9.566;2023-03-19T05:05:13;99714.75;;;5.90;100.00
31681;BME280;18281;51.364;9.566;2023-03-19T05:07:50;99720.44;;;6.00;100.00
31681;BME280;18281;51.364;9.566;2023-03-19T05:10:16;99728.13;;;6.03;100.00
31681;BME280;18281;51.364;9.566;2023-03-19T05:12:42;99723.91;;;5.78;100.00
31681;BME280;18281;51.364;9.566;2023-03-19T05:15:13;99733.69;;;5.73;100.00
31681;BME280;18281;51.364;9.566;2023-03-19T05:17:41;99734.75;;;5.89;100.00
31681;BME280;18281;51.364;9.566;2023-03-19T05:20:08;99733.69;;;5.73;100.00
31681;BME280;18281;51.364;9.566;2023-03-19T05:22:45;99742.13;;;5.78;100.00
31681;BME280;18281;51.364;9.566;2023-03-19T05:25:12;99734.38;;;5.99;100.00
31681;BME280;18281;51.364;9.566;2023-03-19T05:27:38;99730.59;;;6.06;100.00
31681;BME280;18281;51.364;9.566;2023-03-19T05:30:05;99728.72;;;6.10;100.00
31681;BME280;18281;51.364;9.566;2023-03-19T05:32:37;99735.94;;;5.82;100.00
31681;BME280;18281;51.364;9.566;2023-03-19T05:35:07;99736.91;;;6.00;100.00
31681;BME280;18281;51.364;9.566;2023-03-19T05:37:33;99748.44;;;5.95;100.00
31681;BME280;18281;51.364;9.566;2023-03-19T05:40:02;99744.66;;;6.02;100.00
31681;BME280;18281;51.364;9.566;2023-03-19T05:42:28;99748.06;;;6.04;100.00
31681;BME280;18281;51.364;9.566;2023-03-19T05:45:11;99752.34;;;6.05;100.00
31681;BME280;18281;51.364;9.566;2023-03-19T05:47:40;99761.53;;;5.93;100.00
31681;BME280;18281;51.364;9.566;2023-03-19T05:50:07;99764.75;;;5.78;100.00
31681;BME280;18281;51.364;9.566;2023-03-19T05:52:41;99759.09;;;5.88;100.00
31681;BME280;18281;51.364;9.566;2023-03-19T05:55:23;99764.34;;;5.66;100.00
31681;BME280;18281;51.364;9.566;2023-03-19T05:57:53;99778.44;;;5.83;100.00
31681;BME280;18281;51.364;9.566;2023-03-19T06:00:20;99782.84;;;5.59;100.00
31681;BME280;18281;51.364;9.566;2023-03-19T06:02:55;99787.31;;;6.21;100.00
31681;BME280;18281;51.364;9.566;2023-03-19T06:05:30;99788.38;;;7.00;100.00
31681;BME280;18281;51.364;9.566;2023-03-19T06:07:56;99788.22;;;7.43;100.00
31681;BME280;18281;51.364;9.566;2023-03-19T06:10:29;99787.91;;;7.68;100.00
31681;BME280;18281;51.364;9.566;2023-03-19T06:12:55;99787.81;;;7.88;100.00
31681;BME280;18281;51.364;9.566;2023-03-19T06:15:23;99761.13;;;7.82;100.00
31681;BME280;18281;51.364;9.566;2023-03-19T06:31:49;99777.28;;;6.12;100.00
31681;BME280;18281;51.364;9.566;2023-03-19T06:45:00;99774.50;;;7.76;100.00
31681;BME280;18281;51.364;9.566;2023-03-19T07:13:27;99801.03;;;6.88;100.00
31681;BME280;18281;51.364;9.566;2023-03-19T07:16:26;99807.63;;;6.97;100.00
31681;BME280;18281;51.364;9.566;2023-03-19T07:19:15;99813.03;;;6.93;100.00
31681;BME280;18281;51.364;9.566;2023-03-19T07:35:12;99820.84;;;7.13;100.00
31681;BME280;18281;51.364;9.566;2023-03-19T07:38:17;99815.53;;;7.35;100.00
31681;BME280;18281;51.364;9.566;2023-03-19T07:41:30;99821.81;;;7.50;100.00
31681;BME280;18281;51.364;9.566;2023-03-19T07:50:39;99815.00;;;7.84;100.00
31681;BME280;18281;51.364;9.566;2023-03-19T07:53:35;99813.03;;;7.89;100.00
31681;BME280;18281;51.364;9.566;2023-03-19T08:00:08;99826.44;;;8.01;100.00
31681;BME280;18281;51.364;9.566;2023-03-19T08:16:15;99822.19;;;8.35;100.00
31681;BME280;18281;51.364;9.566;2023-03-19T08:18:40;99822.13;;;8.54;100.00
31681;BME280;18281;51.364;9.566;2023-03-19T08:21:06;99818.59;;;8.72;100.00
31681;BME280;18281;51.364;9.566;2023-03-19T08:23:38;99815.31;;;9.02;100.00
31681;BME280;18281;51.364;9.566;2023-03-19T08:26:03;99814.88;;;9.28;100.00
31681;BME280;18281;51.364;9.566;2023-03-19T08:28:29;99814.06;;;9.43;100.00
31681;BME280;18281;51.364;9.566;2023-03-19T08:30:57;99814.00;;;9.61;100.00
31681;BME280;18281;51.364;9.566;2023-03-19T08:33:30;99820.00;;;9.95;100.00
31681;BME280;18281;51.364;9.566;2023-03-19T08:36:20;99815.44;;;9.98;100.00
31681;BME280;18281;51.364;9.566;2023-03-19T08:38:48;99815.78;;;9.76;100.00
31681;BME280;18281;51.364;9.566;2023-03-19T08:41:26;99813.84;;;9.64;100.00
31681;BME280;18281;51.364;9.566;2023-03-19T08:43:57;99812.56;;;9.55;100.00
31681;BME280;18281;51.364;9.566;2023-03-19T08:46:31;99813.56;;;9.52;100.00
31681;BME280;18281;51.364;9.566;2023-03-19T08:48:58;99816.84;;;9.56;100.00
31681;BME280;18281;51.364;9.566;2023-03-19T08:51:29;99820.00;;;9.47;100.00
31681;BME280;18281;51.364;9.566;2023-03-19T08:53:55;99821.13;;;9.41;100.00
31681;BME280;18281;51.364;9.566;2023-03-19T08:56:25;99817.44;;;9.45;100.00
31681;BME280;18281;51.364;9.566;2023-03-19T08:58:55;99812.78;;;9.50;100.00
31681;BME280;18281;51.364;9.566;2023-03-19T09:01:20;99817.28;;;9.48;100.00
31681;BME280;18281;51.364;9.566;2023-03-19T09:03:46;99816.28;;;9.51;100.00
31681;BME280;18281;51.364;9.566;2023-03-19T09:06:25;99816.94;;;9.54;100.00
31681;BME280;18281;51.364;9.566;2023-03-19T09:08:50;99815.59;;;9.47;100.00
31681;BME280;18281;51.364;9.566;2023-03-19T09:11:16;99830.28;;;9.50;100.00
31681;BME280;18281;51.364;9.566;2023-03-19T09:13:44;99820.81;;;9.47;100.00
31681;BME280;18281;51.364;9.566;2023-03-19T09:16:10;99819.00;;;9.32;100.00
31681;BME280;18281;51.364;9.566;2023-03-19T09:18:35;99817.94;;;9.52;100.00
31681;BME280;18281;51.364;9.566;2023-03-19T09:21:02;99816.00;;;9.55;100.00
31681;BME280;18281;51.364;9.566;2023-03-19T09:23:30;99816.59;;;9.61;100.00
31681;BME280;18281;51.364;9.566;2023-03-19T09:25:56;99817.06;;;9.69;100.00
31681;BME280;18281;51.364;9.566;2023-03-19T09:28:21;99814.44;;;9.69;100.00
31681;BME280;18281;51.364;9.566;2023-03-19T09:30:48;99816.81;;;9.73;100.00
31681;BME280;18281;51.364;9.566;2023-03-19T09:33:15;99824.16;;;9.83;100.00
31681;BME280;18281;51.364;9.566;2023-03-19T09:35:52;99824.50;;;9.93;100.00
31681;BME280;18281;51.364;9.566;2023-03-19T09:38:19;99817.38;;;9.95;100.00
31681;BME280;18281;51.364;9.566;2023-03-19T09:40:47;99818.16;;;9.97;100.00
31681;BME280;18281;51.364;9.566;2023-03-19T09:45:41;99820.41;;;10.03;100.00
31681;BME280;18281;51.364;9.566;2023-03-19T09:48:16;99810.69;;;10.05;100.00
31681;BME280;18281;51.364;9.566;2023-03-19T09:50:47;99807.78;;;10.09;100.00
31681;BME280;18281;51.364;9.566;2023-03-19T09:53:54;99816.94;;;10.18;100.00
31681;BME280;18281;51.364;9.566;2023-03-19T09:56:21;99808.88;;;10.21;100.00
31681;BME280;18281;51.364;9.566;2023-03-19T09:58:49;99815.28;;;10.32;100.00
31681;BME280;18281;51.364;9.566;2023-03-19T10:01:34;99821.72;;;10.42;100.00
31681;BME280;18281;51.364;9.566;2023-03-19T10:04:19;99817.19;;;10.44;100.00
31681;BME280;18281;51.364;9.566;2023-03-19T10:07:02;99820.06;;;10.55;100.00
31681;BME280;18281;51.364;9.566;2023-03-19T10:12:37;99818.66;;;10.64;100.00
31681;BME280;18281;51.364;9.566;2023-03-19T10:15:24;99825.81;;;10.76;100.00
31681;BME280;18281;51.364;9.566;2023-03-19T10:18:15;99823.06;;;10.64;100.00
31681;BME280;18281;51.364;9.566;2023-03-19T10:20:46;99822.53;;;10.73;100.00
31681;BME280;18281;51.364;9.566;2023-03-19T10:26:04;99822.88;;;10.67;100.00
31681;BME280;18281;51.364;9.566;2023-03-19T10:28:35;99816.78;;;10.97;100.00
31681;BME280;18281;51.364;9.566;2023-03-19T10:31:27;99823.91;;;10.64;100.00
31681;BME280;18281;51.364;9.566;2023-03-19T10:34:24;99818.09;;;10.89;100.00
31681;BME280;18281;51.364;9.566;2023-03-19T10:37:12;99819.91;;;11.03;100.00
31681;BME280;18281;51.364;9.566;2023-03-19T10:39:41;99816.22;;;11.20;100.00
31681;BME280;18281;51.364;9.566;2023-03-19T10:45:32;99824.56;;;11.41;100.00
31681;BME280;18281;51.364;9.566;2023-03-19T10:48:00;99822.59;;;11.31;100.00
31681;BME280;18281;51.364;9.566;2023-03-19T10:50:37;99821.72;;;11.59;100.00
31681;BME280;18281;51.364;9.566;2023-03-19T10:55:43;99830.41;;;11.88;100.00
31681;BME280;18281;51.364;9.566;2023-03-19T10:58:20;99825.69;;;12.08;100.00
31681;BME280;18281;51.364;9.566;2023-03-19T11:00:56;99818.84;;;12.18;100.00
31681;BME280;18281;51.364;9.566;2023-03-19T11:06:30;99823.56;;;12.40;100.00
31681;BME280;18281;51.364;9.566;2023-03-19T11:08:58;99820.09;;;12.53;98.00
31681;BME280;18281;51.364;9.566;2023-03-19T11:11:31;99819.16;;;12.54;97.32
31681;BME280;18281;51.364;9.566;2023-03-19T11:13:57;99822.44;;;12.70;97.45
31681;BME280;18281;51.364;9.566;2023-03-19T11:16:23;99817.59;;;12.77;97.01
31681;BME280;18281;51.364;9.566;2023-03-19T11:18:51;99823.19;;;12.85;98.57
31681;BME280;18281;51.364;9.566;2023-03-19T11:21:27;99843.53;;;12.83;97.00
31681;BME280;18281;51.364;9.566;2023-03-19T11:23:59;99816.03;;;12.87;97.79
31681;BME280;18281;51.364;9.566;2023-03-19T11:26:27;99822.59;;;12.95;97.67
31681;BME280;18281;51.364;9.566;2023-03-19T11:28:59;99819.44;;;13.02;98.64
31681;BME280;18281;51.364;9.566;2023-03-19T11:31:32;99822.47;;;13.09;98.02
31681;BME280;18281;51.364;9.566;2023-03-19T11:34:15;99820.59;;;13.11;94.23
31681;BME280;18281;51.364;9.566;2023-03-19T11:42:44;99819.00;;;13.21;94.98
31681;BME280;18281;51.364;9.566;2023-03-19T11:48:09;99818.88;;;13.23;99.11
31681;BME280;18281;51.364;9.566;2023-03-19T11:51:09;99809.09;;;13.25;96.28
31681;BME280;18281;51.364;9.566;2023-03-19T11:53:57;99820.56;;;13.24;97.79
31681;BME280;18281;51.364;9.566;2023-03-19T11:59:21;99810.97;;;13.36;93.55
31681;BME280;18281;51.364;9.566;2023-03-19T12:10:27;99795.81;;;13.88;92.65
31681;BME280;18281;51.364;9.566;2023-03-19T12:13:01;99800.28;;;13.87;93.51
31681;BME280;18281;51.364;9.566;2023-03-19T12:15:35;99801.94;;;14.01;89.88
31681;BME280;18281;51.364;9.566;2023-03-19T12:18:46;99796.88;;;13.98;91.29
31681;BME280;18281;51.364;9.566;2023-03-19T12:21:50;99795.69;;;13.65;94.17
31681;BME280;18281;51.364;9.566;2023-03-19T12:24:23;99796.13;;;13.96;100.00
31681;BME280;18281;51.364;9.566;2023-03-19T12:35:59;99788.41;;;13.69;86.89
31681;BME280;18281;51.364;9.566;2023-03-19T12:38:42;99792.91;;;13.80;88.89
31681;BME280;18281;51.364;9.566;2023-03-19T12:41:13;99794.31;;;13.97;88.96
31681;BME280;18281;51.364;9.566;2023-03-19T12:44:08;99781.81;;;13.87;91.68
31681;BME280;18281;51.364;9.566;2023-03-19T12:46:40;99784.78;;;13.70;90.29
31681;BME280;18281;51.364;9.566;2023-03-19T12:52:02;99787.91;;;13.64;91.48
31681;BME280;18281;51.364;9.566;2023-03-19T12:54:38;99791.81;;;13.58;89.05
31681;BME280;18281;51.364;9.566;2023-03-19T12:59:47;99788.50;;;13.30;88.64
31681;BME280;18281;51.364;9.566;2023-03-19T13:05:31;99800.03;;;13.03;85.83
31681;BME280;18281;51.364;9.566;2023-03-19T13:11:05;99820.31;;;12.63;93.35
31681;BME280;18281;51.364;9.566;2023-03-19T13:19:28;99819.88;;;12.43;98.30
31681;BME280;18281;51.364;9.566;2023-03-19T13:21:59;99811.13;;;12.42;99.72
31681;BME280;18281;51.364;9.566;2023-03-19T13:24:31;99811.16;;;12.55;100.00
31681;BME280;18281;51.364;9.566;2023-03-19T13:26:59;99806.09;;;12.65;100.00
31681;BME280;18281;51.364;9.566;2023-03-19T13:29:30;99795.38;;;12.68;100.00
31681;BME280;18281;51.364;9.566;2023-03-19T13:32:05;99796.00;;;12.72;100.00
31681;BME280;18281;51.364;9.566;2023-03-19T13:34:37;99795.38;;;12.68;100.00
31681;BME280;18281;51.364;9.566;2023-03-19T13:37:18;99792.03;;;13.18;100.00
31681;BME280;18281;51.364;9.566;2023-03-19T13:49:29;99784.22;;;13.03;96.61
31681;BME280;18281;51.364;9.566;2023-03-19T13:55:31;99774.00;;;13.12;98.53
31681;BME280;18281;51.364;9.566;2023-03-19T13:58:42;99772.81;;;13.16;96.44
31681;BME280;18281;51.364;9.566;2023-03-19T14:01:48;99771.34;;;13.12;99.02
31681;BME280;18281;51.364;9.566;2023-03-19T14:07:36;99767.97;;;13.22;94.70
31681;BME280;18281;51.364;9.566;2023-03-19T14:13:30;99774.47;;;13.30;90.86
31681;BME280;18281;51.364;9.566;2023-03-19T14:19:03;99774.94;;;13.23;91.03
31681;BME280;18281;51.364;9.566;2023-03-19T14:25:26;99771.34;;;13.12;89.46
31681;BME280;18281;51.364;9.566;2023-03-19T14:31:00;99772.28;;;13.11;88.76
31681;BME280;18281;51.364;9.566;2023-03-19T14:33:38;99775.03;;;13.09;87.70
31681;BME280;18281;51.364;9.566;2023-03-19T14:36:16;99769.66;;;13.11;88.12
31681;BME280;18281;51.364;9.566;2023-03-19T14:42:15;99774.00;;;13.12;87.05
31681;BME280;18281;51.364;9.566;2023-03-19T14:56:20;99780.63;;;12.91;85.86
31681;BME280;18281;51.364;9.566;2023-03-19T14:58:58;99779.03;;;12.89;85.03
31681;BME280;18281;51.364;9.566;2023-03-19T15:01:33;99783.88;;;12.82;85.09
31681;BME280;18281;51.364;9.566;2023-03-19T15:04:42;99776.50;;;12.87;87.20
31681;BME280;18281;51.364;9.566;2023-03-19T15:07:41;99782.72;;;12.86;88.29
31681;BME280;18281;51.364;9.566;2023-03-19T15:17:16;99778.72;;;12.81;87.98
31681;BME280;18281;51.364;9.566;2023-03-19T15:19:51;99780.19;;;12.85;87.93
31681;BME280;18281;51.364;9.566;2023-03-19T15:22:28;99780.84;;;12.88;90.77
31681;BME280;18281;51.364;9.566;2023-03-19T15:25:21;99784.09;;;12.79;90.48
31681;BME280;18281;51.364;9.566;2023-03-19T15:28:18;99783.34;;;12.77;91.44
31681;BME280;18281;51.364;9.566;2023-03-19T15:31:03;99785.88;;;12.66;91.85
31681;BME280;18281;51.364;9.566;2023-03-19T15:33:38;99784.09;;;12.66;91.24
31681;BME280;18281;51.364;9.566;2023-03-19T15:36:35;99784.19;;;12.65;93.70
31681;BME280;18281;51.364;9.566;2023-03-19T15:39:15;99783.44;;;12.63;92.89
31681;BME280;18281;51.364;9.566;2023-03-19T15:41:56;99786.84;;;12.65;95.30
31681;BME280;18281;51.364;9.566;2023-03-19T15:45:09;99784.91;;;12.67;94.45
31681;BME280;18281;51.364;9.566;2023-03-19T15:48:01;99789.88;;;12.58;95.46
31681;BME280;18281;51.364;9.566;2023-03-19T15:50:34;99796.81;;;12.59;96.18
31681;BME280;18281;51.364;9.566;2023-03-19T15:53:09;99792.94;;;12.52;95.89
31681;BME280;18281;51.364;9.566;2023-03-19T15:55:40;99804.91;;;12.43;96.81
31681;BME280;18281;51.364;9.566;2023-03-19T15:58:17;99795.03;;;12.47;99.07
31681;BME280;18281;51.364;9.566;2023-03-19T16:01:04;99802.50;;;12.53;98.04
31681;BME280;18281;51.364;9.566;2023-03-19T16:10:20;99797.44;;;12.37;98.35
31681;BME280;18281;51.364;9.566;2023-03-19T16:13:15;99807.75;;;12.40;100.00
31681;BME280;18281;51.364;9.566;2023-03-19T16:19:03;99812.88;;;12.16;100.00
31681;BME280;18281;51.364;9.566;2023-03-19T16:22:27;99817.69;;;12.22;99.90
31681;BME280;18281;51.364;9.566;2023-03-19T16:28:22;99816.75;;;12.23;100.00
31681;BME280;18281;51.364;9.566;2023-03-19T16:36:56;99818.94;;;12.17;100.00
31681;BME280;18281;51.364;9.566;2023-03-19T16:43:05;99832.75;;;12.20;100.00
31681;BME280;18281;51.364;9.566;2023-03-19T16:45:31;99831.13;;;12.45;100.00
31681;BME280;18281;51.364;9.566;2023-03-19T16:48:00;99829.47;;;12.57;100.00
31681;BME280;18281;51.364;9.566;2023-03-19T16:50:30;99836.00;;;12.51;100.00
31681;BME280;18281;51.364;9.566;2023-03-19T16:52:57;99842.44;;;12.47;100.00
31681;BME280;18281;51.364;9.566;2023-03-19T16:55:28;99845.94;;;12.61;100.00
31681;BME280;18281;51.364;9.566;2023-03-19T16:58:01;99854.44;;;12.51;100.00
31681;BME280;18281;51.364;9.566;2023-03-19T17:00:28;99852.13;;;12.59;100.00
31681;BME280;18281;51.364;9.566;2023-03-19T17:03:00;99857.28;;;12.48;100.00
31681;BME280;18281;51.364;9.566;2023-03-19T17:05:34;99863.25;;;12.37;100.00
31681;BME280;18281;51.364;9.566;2023-03-19T17:08:05;99858.88;;;12.23;100.00
31681;BME280;18281;51.364;9.566;2023-03-19T17:10:39;99864.13;;;12.23;100.00
31681;BME280;18281;51.364;9.566;2023-03-19T17:13:17;99860.97;;;12.18;100.00
31681;BME280;18281;51.364;9.566;2023-03-19T17:15:51;99870.88;;;12.15;100.00
31681;BME280;18281;51.364;9.566;2023-03-19T17:18:44;99866.13;;;11.92;99.93
31681;BME280;18281;51.364;9.566;2023-03-19T17:21:37;99875.41;;;11.98;99.88